TAF Text Data
IDs:
Format:
Raw Decoded Include METAR

Data at: 1239 UTC 26 Feb 2021

KSRQ 261120Z 2612/2712 VRB04KT P6SM SKC
  FM261400 12007KT P6SM SKC
  FM261800 21008KT P6SM FEW040
  FM270000 VRB03KT P6SM FEW035